createdAt,value
2022-10-23T00:00:36.616Z,3.68
2022-10-23T00:01:40.042Z,3.62
2022-10-23T00:02:43.818Z,3.41
2022-10-23T00:03:47.022Z,3.30
2022-10-23T00:04:50.310Z,3.42
2022-10-23T00:05:53.595Z,3.43
2022-10-23T00:06:56.476Z,3.36
2022-10-23T00:07:59.747Z,3.39
2022-10-23T00:09:03.546Z,3.68
2022-10-23T00:10:06.622Z,3.13
2022-10-23T00:11:10.022Z,3.40
2022-10-23T00:12:13.292Z,3.22
2022-10-23T00:13:16.472Z,3.28
2022-10-23T00:14:19.355Z,3.05
2022-10-23T00:15:22.438Z,3.52
2022-10-23T00:16:25.510Z,2.76
2022-10-23T00:17:28.985Z,3.01
2022-10-23T00:18:32.089Z,2.93
2022-10-23T00:19:35.064Z,3.06
2022-10-23T00:20:37.927Z,2.89
2022-10-23T00:21:41.314Z,2.78
2022-10-23T00:22:44.294Z,2.67
2022-10-23T00:23:47.205Z,2.96
2022-10-23T00:24:50.045Z,3.00
2022-10-23T00:25:53.539Z,2.65
2022-10-23T00:26:56.819Z,2.70
2022-10-23T00:28:00.406Z,2.66
2022-10-23T00:29:03.603Z,2.89
2022-10-23T00:30:06.662Z,2.80
2022-10-23T00:31:09.845Z,2.73
2022-10-23T00:32:12.962Z,2.82
2022-10-23T00:33:15.805Z,2.92
2022-10-23T00:34:18.777Z,2.78
2022-10-23T00:35:22.164Z,2.71
2022-10-23T00:36:25.458Z,2.72
2022-10-23T00:37:28.241Z,2.56
2022-10-23T00:38:31.300Z,2.75
2022-10-23T00:39:34.484Z,2.40
2022-10-23T00:40:37.663Z,2.59
2022-10-23T00:41:40.855Z,2.44
2022-10-23T00:42:44.250Z,2.50
2022-10-23T00:43:47.304Z,2.79
2022-10-23T00:44:50.397Z,2.55
2022-10-23T00:45:53.272Z,2.72
2022-10-23T00:46:56.367Z,2.70
2022-10-23T00:47:59.526Z,2.77
2022-10-23T00:49:02.860Z,2.90
2022-10-23T00:50:05.689Z,3.07
2022-10-23T00:51:08.965Z,3.05
2022-10-23T00:52:12.167Z,3.19
2022-10-23T00:53:15.345Z,3.43
2022-10-23T00:54:25.846Z,3.36
2022-10-23T00:55:22.926Z,3.47
2022-10-23T00:56:26.416Z,3.16
2022-10-23T00:58:32.067Z,3.49
2022-10-23T00:59:34.843Z,3.18
2022-10-23T01:00:37.669Z,2.82
2022-10-23T01:01:40.729Z,2.58
2022-10-23T01:02:43.916Z,2.51
2022-10-23T01:03:47.398Z,2.82
2022-10-23T01:04:50.749Z,2.65
2022-10-23T01:05:55.153Z,2.77
2022-10-23T01:06:58.339Z,2.51
2022-10-23T01:08:02.142Z,2.81
2022-10-23T01:09:05.321Z,2.62
2022-10-23T01:10:08.595Z,3.68
2022-10-23T01:11:11.785Z,3.62
2022-10-23T01:12:14.550Z,3.30
2022-10-23T01:13:17.433Z,2.90
2022-10-23T01:14:20.662Z,2.61
2022-10-23T01:15:23.689Z,2.46
2022-10-23T01:16:26.773Z,2.73
2022-10-23T01:17:29.848Z,2.30
2022-10-23T01:18:32.695Z,2.58
2022-10-23T01:19:35.498Z,3.36
2022-10-23T01:20:42.074Z,2.91
2022-10-23T01:21:45.245Z,2.90
2022-10-23T01:22:48.619Z,2.53
2022-10-23T01:23:51.804Z,2.74
2022-10-23T01:24:54.992Z,2.26
2022-10-23T01:25:58.501Z,2.42
2022-10-23T01:27:01.456Z,2.51
2022-10-23T01:28:04.640Z,2.24
2022-10-23T01:29:07.815Z,2.06
2022-10-23T01:30:10.799Z,2.14
2022-10-23T01:31:13.979Z,2.32
2022-10-23T01:32:16.883Z,2.38
2022-10-23T01:33:19.524Z,2.04
2022-10-23T01:34:23.326Z,2.04
2022-10-23T01:35:26.299Z,2.41
2022-10-23T01:36:29.486Z,2.21
2022-10-23T01:37:32.565Z,2.10
2022-10-23T01:38:35.835Z,1.93
2022-10-23T01:39:38.939Z,2.17
2022-10-23T01:40:41.901Z,2.05
2022-10-23T01:41:44.514Z,2.28
2022-10-23T01:42:47.949Z,2.42
2022-10-23T01:43:51.045Z,2.48
2022-10-23T01:44:55.168Z,2.59
2022-10-23T01:45:58.626Z,2.52
2022-10-23T01:47:02.402Z,3.06
2022-10-23T01:48:05.307Z,2.30
2022-10-23T01:49:13.085Z,2.42
2022-10-23T01:50:16.404Z,2.19
2022-10-23T01:51:19.348Z,2.38
2022-10-23T01:52:23.080Z,2.15
2022-10-23T01:53:25.924Z,2.24
2022-10-23T01:54:29.003Z,2.07
2022-10-23T01:55:32.096Z,2.38
2022-10-23T01:56:35.569Z,2.25
2022-10-23T01:57:41.848Z,2.07
2022-10-23T01:58:45.308Z,2.19
2022-10-23T01:59:48.795Z,2.03
2022-10-23T02:00:52.077Z,2.11
2022-10-23T02:02:01.829Z,1.98
2022-10-23T02:03:05.200Z,1.95
2022-10-23T02:04:08.818Z,2.12
2022-10-23T02:05:12.181Z,2.01
2022-10-23T02:06:15.365Z,2.22
2022-10-23T02:07:18.444Z,2.10
2022-10-23T02:08:22.035Z,2.24
2022-10-23T02:09:25.319Z,2.27
2022-10-23T02:10:29.218Z,1.92
2022-10-23T02:11:32.189Z,2.08
2022-10-23T02:12:36.402Z,2.14
2022-10-23T02:13:41.236Z,2.16
2022-10-23T02:14:44.809Z,2.26
2022-10-23T02:15:47.787Z,2.36
2022-10-23T02:16:50.965Z,2.43
2022-10-23T02:17:57.145Z,2.70
2022-10-23T02:18:59.883Z,3.26
2022-10-23T02:20:02.977Z,3.25
2022-10-23T02:21:05.948Z,3.24
2022-10-23T02:22:09.236Z,3.17
2022-10-23T02:23:19.486Z,2.80
2022-10-23T02:24:24.927Z,2.85
2022-10-23T02:25:27.780Z,2.94
2022-10-23T02:26:30.968Z,3.44
2022-10-23T02:27:33.845Z,3.29
2022-10-23T02:28:37.136Z,2.92
2022-10-23T02:29:44.511Z,3.17
2022-10-23T02:30:47.686Z,2.48
2022-10-23T02:31:51.998Z,2.42
2022-10-23T02:32:57.431Z,2.62
2022-10-23T02:34:00.407Z,2.85
2022-10-23T02:35:03.905Z,3.06
2022-10-23T02:36:07.800Z,2.75
2022-10-23T02:37:11.366Z,2.81
2022-10-23T02:38:15.053Z,2.68
2022-10-23T02:39:18.782Z,2.53
2022-10-23T02:40:21.851Z,2.72
2022-10-23T02:41:25.136Z,2.81
2022-10-23T02:43:49.424Z,2.56
2022-10-23T02:45:04.861Z,2.58
2022-10-23T02:46:14.945Z,2.69
2022-10-23T02:47:27.968Z,2.77
2022-10-23T02:48:31.048Z,2.72
2022-10-23T02:49:36.872Z,2.62
2022-10-23T02:50:41.352Z,2.60
2022-10-23T02:51:47.192Z,2.56
2022-10-23T02:52:58.918Z,2.72
2022-10-23T02:54:03.637Z,2.45
2022-10-23T02:55:10.596Z,2.59
2022-10-23T02:56:17.176Z,2.64
2022-10-23T02:57:19.927Z,2.52
2022-10-23T02:58:23.331Z,2.88
2022-10-23T02:59:34.030Z,3.15
2022-10-23T03:00:37.306Z,3.12
2022-10-23T03:01:55.395Z,2.91
2022-10-23T03:03:10.314Z,3.05
2022-10-23T03:04:20.502Z,3.16
2022-10-23T03:05:23.165Z,3.31
2022-10-23T03:07:49.397Z,3.28
2022-10-23T03:08:52.534Z,2.99
2022-10-23T03:09:55.792Z,3.22
2022-10-23T03:11:00.110Z,3.12
2022-10-23T03:12:03.045Z,2.82
2022-10-23T03:13:10.699Z,2.78
2022-10-23T03:15:35.396Z,2.30
2022-10-23T03:16:38.303Z,2.23
2022-10-23T03:19:01.835Z,2.43
2022-10-23T03:20:05.548Z,2.45
2022-10-23T03:21:09.459Z,2.01
2022-10-23T03:22:12.661Z,2.14
2022-10-23T03:23:15.439Z,2.41
2022-10-23T03:24:19.523Z,2.49
2022-10-23T03:25:23.216Z,2.26
2022-10-23T03:26:34.624Z,2.14
2022-10-23T03:27:38.386Z,2.20
2022-10-23T03:28:44.645Z,2.34
2022-10-23T03:29:48.944Z,2.34
2022-10-23T03:30:56.538Z,2.06
2022-10-23T03:32:07.466Z,2.12
2022-10-23T03:33:11.088Z,2.20
2022-10-23T03:34:14.780Z,2.06
2022-10-23T03:35:17.554Z,2.25
2022-10-23T03:36:27.803Z,2.28
2022-10-23T03:38:51.881Z,2.38
2022-10-23T03:39:54.961Z,2.52
2022-10-23T03:41:00.548Z,2.35
2022-10-23T03:42:17.098Z,2.49
2022-10-23T03:44:44.702Z,2.61
2022-10-23T03:45:50.810Z,2.84
2022-10-23T03:46:54.196Z,2.99
2022-10-23T03:47:58.406Z,3.19
2022-10-23T03:49:03.427Z,2.86
2022-10-23T03:51:26.881Z,3.03
2022-10-23T03:52:30.277Z,3.30
2022-10-23T03:53:36.500Z,3.15
2022-10-23T03:54:53.536Z,2.87
2022-10-23T03:55:57.052Z,3.01
2022-10-23T03:57:00.312Z,3.18
2022-10-23T03:58:03.809Z,3.39
2022-10-23T03:59:06.766Z,2.86
2022-10-23T04:00:24.389Z,2.97
2022-10-23T04:01:33.564Z,3.63
2022-10-23T04:02:36.892Z,4.00
2022-10-23T04:03:40.706Z,3.64
2022-10-23T04:04:43.982Z,2.95
2022-10-23T04:05:48.239Z,3.22
2022-10-23T04:06:51.031Z,3.30
2022-10-23T04:07:54.143Z,3.48
2022-10-23T04:09:00.110Z,3.50
2022-10-23T04:10:03.580Z,3.33
2022-10-23T04:11:06.854Z,3.46
2022-10-23T04:12:09.920Z,3.14
2022-10-23T04:13:23.079Z,3.41
2022-10-23T04:14:39.582Z,3.57
2022-10-23T04:15:46.623Z,3.56
2022-10-23T04:16:49.907Z,3.59
2022-10-23T04:20:44.867Z,3.79
2022-10-23T04:21:59.828Z,3.46
2022-10-23T04:23:07.155Z,3.37
2022-10-23T04:24:15.575Z,3.62
2022-10-23T04:25:25.925Z,3.29
2022-10-23T04:27:52.572Z,3.72
2022-10-23T04:28:58.086Z,4.01
2022-10-23T04:30:18.473Z,4.00
2022-10-23T04:34:19.234Z,3.75
2022-10-23T04:36:46.159Z,4.20
2022-10-23T04:37:54.570Z,4.11
2022-10-23T04:38:58.162Z,3.81
2022-10-23T04:40:01.332Z,3.78
2022-10-23T04:41:07.946Z,4.22
2022-10-23T04:46:28.992Z,4.53
2022-10-23T04:47:32.945Z,4.21
2022-10-23T04:50:14.128Z,4.54
2022-10-23T04:52:47.301Z,4.41
2022-10-23T05:09:51.198Z,5.04
2022-10-23T05:12:17.464Z,5.16
2022-10-23T05:25:34.855Z,5.11
2022-10-23T05:27:59.269Z,5.38
2022-10-23T08:10:35.858Z,7.87
2022-10-23T08:14:41.833Z,7.46
2022-10-23T08:21:31.106Z,6.89
2022-10-23T08:32:18.320Z,6.28
2022-10-23T10:09:09.181Z,7.32
2022-10-23T10:10:21.948Z,7.09
2022-10-23T10:12:51.702Z,7.52
2022-10-23T10:21:00.779Z,6.88
2022-10-23T10:25:00.564Z,7.05
2022-10-23T10:31:31.093Z,7.16
2022-10-23T10:36:41.167Z,6.52
2022-10-23T10:47:32.008Z,6.12
2022-10-23T10:51:34.828Z,6.27
2022-10-23T11:00:43.472Z,6.21
2022-10-23T11:33:47.944Z,5.72
2022-10-23T11:35:07.275Z,6.08
2022-10-23T11:36:12.007Z,5.81
2022-10-23T11:37:22.660Z,5.92
2022-10-23T11:39:50.201Z,5.69
2022-10-23T11:40:58.301Z,5.63
2022-10-23T11:44:55.185Z,5.51
2022-10-23T11:53:14.290Z,5.37
2022-10-23T11:56:59.406Z,5.61
2022-10-23T12:04:22.017Z,5.60
2022-10-23T12:06:35.484Z,5.90
2022-10-23T12:07:40.088Z,5.35
2022-10-23T12:10:04.797Z,5.46
2022-10-23T12:11:09.065Z,5.90
2022-10-23T12:12:16.967Z,5.56
2022-10-23T12:13:25.362Z,5.81
2022-10-23T12:20:02.022Z,5.59
2022-10-23T12:25:13.069Z,6.07
2022-10-23T12:26:18.934Z,5.69
2022-10-23T12:28:45.975Z,5.24
2022-10-23T12:29:51.606Z,5.24
2022-10-23T12:30:56.217Z,5.74
2022-10-23T12:32:06.092Z,5.56
2022-10-23T12:33:09.647Z,5.21
2022-10-23T12:34:13.849Z,5.31
2022-10-23T12:35:17.345Z,5.45
2022-10-23T12:36:21.229Z,5.39
2022-10-23T12:37:30.670Z,5.09
2022-10-23T12:38:37.534Z,5.20
2022-10-23T12:39:48.487Z,5.29
2022-10-23T12:40:58.154Z,5.40
2022-10-23T12:42:06.269Z,5.11
2022-10-23T12:43:10.027Z,5.39
2022-10-23T12:44:19.463Z,5.01
2022-10-23T12:45:26.418Z,5.11
2022-10-23T12:46:32.685Z,4.88
2022-10-23T12:47:39.851Z,5.16
2022-10-23T12:48:48.689Z,4.96
2022-10-23T12:49:57.385Z,5.29
2022-10-23T12:53:45.220Z,4.66
2022-10-23T12:54:55.309Z,4.79
2022-10-23T12:56:13.013Z,5.41
2022-10-23T12:57:28.583Z,5.33
2022-10-23T12:58:43.861Z,4.94
2022-10-23T12:59:59.260Z,5.24
2022-10-23T13:02:35.604Z,4.84
2022-10-23T13:03:40.806Z,4.73
2022-10-23T13:04:45.527Z,4.83
2022-10-23T13:05:56.557Z,4.97
2022-10-23T13:07:11.500Z,4.93
2022-10-23T13:08:16.470Z,5.42
2022-10-23T13:12:11.613Z,4.98
2022-10-23T13:13:22.822Z,5.36
2022-10-23T13:14:26.635Z,5.27
2022-10-23T13:16:53.263Z,5.23
2022-10-23T13:18:04.469Z,5.30
2022-10-23T13:19:20.419Z,5.25
2022-10-23T13:20:30.990Z,5.43
2022-10-23T13:22:44.694Z,5.64
2022-10-23T13:25:11.365Z,4.79
2022-10-23T13:26:15.341Z,5.06
2022-10-23T13:27:19.355Z,4.71
2022-10-23T13:28:24.517Z,4.78
2022-10-23T13:29:28.092Z,4.89
2022-10-23T13:30:32.270Z,4.84
2022-10-23T13:31:39.356Z,4.97
2022-10-23T13:32:43.682Z,4.48
2022-10-23T13:33:53.835Z,4.58
2022-10-23T13:35:04.377Z,4.87
2022-10-23T13:36:11.545Z,4.84
2022-10-23T13:37:17.079Z,4.85
2022-10-23T13:38:32.794Z,4.86
2022-10-23T13:39:37.682Z,4.82
2022-10-23T13:40:43.100Z,4.78
2022-10-23T13:41:55.104Z,4.66
2022-10-23T13:42:59.098Z,4.88
2022-10-23T13:44:12.745Z,5.19
2022-10-23T13:45:19.402Z,4.83
2022-10-23T13:46:22.882Z,4.95
2022-10-23T13:47:26.372Z,4.54
2022-10-23T13:49:53.822Z,4.45
2022-10-23T13:50:59.673Z,4.32
2022-10-23T13:52:04.596Z,4.16
2022-10-23T13:53:09.638Z,3.71
2022-10-23T13:54:24.191Z,3.34
2022-10-23T13:55:27.543Z,2.93
2022-10-23T13:56:30.939Z,2.84
2022-10-23T13:57:46.919Z,2.69
2022-10-23T13:59:05.249Z,2.66
2022-10-23T14:00:14.085Z,2.61
2022-10-23T14:01:19.675Z,2.96
2022-10-23T14:02:22.987Z,2.49
2022-10-23T14:03:26.576Z,2.31
2022-10-23T14:04:30.174Z,2.35
2022-10-23T14:06:57.625Z,2.25
2022-10-23T14:08:18.119Z,2.42
2022-10-23T14:09:32.480Z,2.23
2022-10-23T14:10:35.744Z,2.32
2022-10-23T14:11:40.772Z,2.50
2022-10-23T14:12:44.822Z,2.52
2022-10-23T14:13:51.171Z,2.15
2022-10-23T14:14:55.109Z,2.05
2022-10-23T14:15:58.638Z,2.03
2022-10-23T14:17:07.664Z,2.19
2022-10-23T14:18:11.748Z,2.12
2022-10-23T14:19:16.152Z,2.28
2022-10-23T14:20:30.238Z,2.34
2022-10-23T14:21:36.896Z,2.57
2022-10-23T14:22:40.433Z,2.54
2022-10-23T14:23:44.144Z,2.42
2022-10-23T14:24:49.578Z,2.34
2022-10-23T14:25:54.391Z,2.23
2022-10-23T14:27:02.489Z,2.50
2022-10-23T14:28:13.763Z,2.49
2022-10-23T14:30:39.476Z,2.08
2022-10-23T14:31:49.292Z,2.19
2022-10-23T14:32:55.470Z,2.48
2022-10-23T14:33:59.366Z,2.40
2022-10-23T14:35:11.246Z,2.21
2022-10-23T14:36:14.892Z,2.44
2022-10-23T14:37:19.772Z,2.50
2022-10-23T14:41:12.112Z,1.94
2022-10-23T14:42:15.921Z,2.27
2022-10-23T14:43:20.219Z,2.26
2022-10-23T14:44:23.706Z,2.01
2022-10-23T14:45:27.195Z,1.99
2022-10-23T14:46:30.983Z,1.96
2022-10-23T14:47:34.371Z,1.87
2022-10-23T14:48:38.274Z,1.76
2022-10-23T14:49:41.862Z,1.86
2022-10-23T14:50:45.354Z,1.81
2022-10-23T14:51:48.642Z,1.92
2022-10-23T14:52:52.281Z,1.89
2022-10-23T14:53:58.712Z,1.89
2022-10-23T14:55:00.756Z,1.65
2022-10-23T14:56:04.537Z,1.69
2022-10-23T14:57:07.697Z,1.79
2022-10-23T14:58:11.212Z,1.76
2022-10-23T14:59:14.805Z,1.73
2022-10-23T15:00:17.890Z,1.78
2022-10-23T15:01:21.210Z,2.08
2022-10-23T15:02:25.062Z,2.18
2022-10-23T15:03:28.452Z,2.46
2022-10-23T15:04:32.042Z,2.26
2022-10-23T15:05:35.120Z,2.26
2022-10-23T15:06:38.609Z,2.23
2022-10-23T15:07:41.899Z,2.26
2022-10-23T15:08:45.397Z,2.34
2022-10-23T15:09:48.678Z,2.34
2022-10-23T15:10:52.768Z,2.24
2022-10-23T15:11:56.763Z,2.49
2022-10-23T15:12:59.950Z,2.64
2022-10-23T15:14:03.452Z,2.62
2022-10-23T15:15:09.083Z,2.31
2022-10-23T15:16:12.176Z,2.50
2022-10-23T15:17:15.999Z,2.54
2022-10-23T15:18:20.261Z,2.45
2022-10-23T15:19:23.240Z,2.04
2022-10-23T15:20:27.046Z,2.27
2022-10-23T15:21:30.935Z,2.70
2022-10-23T15:22:34.241Z,2.76
2022-10-23T15:23:37.604Z,2.04
2022-10-23T15:24:40.805Z,2.17
2022-10-23T15:25:44.085Z,2.14
2022-10-23T15:26:47.563Z,2.06
2022-10-23T15:27:51.054Z,2.09
2022-10-23T15:28:54.957Z,2.31
2022-10-23T15:29:58.747Z,2.29
2022-10-23T15:31:02.543Z,2.17
2022-10-23T15:32:06.244Z,1.99
2022-10-23T15:33:09.731Z,2.00
2022-10-23T15:34:13.624Z,2.03
2022-10-23T15:35:17.167Z,2.16
2022-10-23T15:36:21.226Z,2.32
2022-10-23T15:37:24.707Z,2.15
2022-10-23T15:38:27.992Z,1.91
2022-10-23T15:39:31.598Z,2.20
2022-10-23T15:40:35.274Z,2.07
2022-10-23T15:41:38.869Z,1.85
2022-10-23T15:42:42.375Z,1.97
2022-10-23T15:43:46.351Z,1.90
2022-10-23T15:44:49.954Z,1.89
2022-10-23T15:45:53.436Z,1.93
2022-10-23T15:46:56.457Z,1.74
2022-10-23T15:47:59.501Z,1.59
2022-10-23T15:49:03.294Z,1.71
2022-10-23T15:50:07.094Z,1.83
2022-10-23T15:51:10.582Z,1.66
2022-10-23T15:52:14.120Z,1.64
2022-10-23T15:53:17.455Z,1.91
2022-10-23T15:54:21.374Z,1.54
2022-10-23T15:55:24.945Z,1.91
2022-10-23T15:56:28.123Z,1.78
2022-10-23T15:57:31.608Z,2.19
2022-10-23T15:58:34.798Z,2.06
2022-10-23T15:59:38.078Z,1.96
2022-10-23T16:00:41.470Z,1.96
2022-10-23T16:01:45.598Z,1.86
2022-10-23T16:02:48.954Z,1.81
2022-10-23T16:03:53.155Z,1.80
2022-10-23T16:04:56.296Z,1.75
2022-10-23T16:05:59.729Z,2.03
2022-10-23T16:07:02.713Z,1.97
2022-10-23T16:08:06.607Z,1.43
2022-10-23T16:09:10.406Z,1.52
2022-10-23T16:10:13.983Z,1.69
2022-10-23T16:11:17.684Z,1.70
2022-10-23T16:12:21.172Z,1.70
2022-10-23T16:13:24.767Z,1.65
2022-10-23T16:14:28.358Z,1.86
2022-10-23T16:15:31.645Z,1.91
2022-10-23T16:16:35.637Z,1.29
2022-10-23T16:17:38.615Z,1.66
2022-10-23T16:18:42.209Z,1.85
2022-10-23T16:19:45.697Z,1.75
2022-10-23T16:20:48.776Z,1.62
2022-10-23T16:21:51.650Z,1.69
2022-10-23T16:22:54.936Z,1.66
2022-10-23T16:23:58.223Z,1.74
2022-10-23T16:25:01.915Z,1.96
2022-10-23T16:26:04.898Z,1.76
2022-10-23T16:27:08.490Z,1.70
2022-10-23T16:28:12.278Z,1.81
2022-10-23T16:29:15.668Z,1.85
2022-10-23T16:30:19.057Z,1.89
2022-10-23T16:31:22.646Z,1.98
2022-10-23T16:32:26.234Z,2.26
2022-10-23T16:33:29.319Z,2.30
2022-10-23T16:34:32.596Z,2.47
2022-10-23T16:35:35.981Z,2.18
2022-10-23T16:36:39.673Z,2.27
2022-10-23T16:37:43.362Z,2.28
2022-10-23T16:38:46.660Z,2.29
2022-10-23T16:39:49.938Z,2.46
2022-10-23T16:40:53.028Z,2.19
2022-10-23T16:41:56.609Z,2.27
2022-10-23T16:42:59.998Z,2.24
2022-10-23T16:44:03.791Z,1.98
2022-10-23T16:45:07.694Z,2.21
2022-10-23T16:46:11.185Z,1.98
2022-10-23T16:47:15.383Z,1.96
2022-10-23T16:48:18.777Z,2.08
2022-10-23T16:49:23.191Z,2.38
2022-10-23T16:50:27.530Z,2.20
2022-10-23T16:51:31.195Z,2.02
2022-10-23T16:52:34.675Z,2.45
2022-10-23T16:53:38.260Z,2.18
2022-10-23T16:54:41.651Z,1.98
2022-10-23T16:55:45.454Z,2.14
2022-10-23T16:56:49.039Z,2.39
2022-10-23T16:57:52.627Z,2.41
2022-10-23T16:58:55.481Z,2.00
2022-10-23T16:59:58.478Z,1.83
2022-10-23T17:01:02.362Z,1.77
2022-10-23T17:02:05.970Z,1.97
2022-10-23T17:03:09.673Z,1.96
2022-10-23T17:04:13.061Z,2.15
2022-10-23T17:05:16.340Z,2.04
2022-10-23T17:06:20.032Z,2.09
2022-10-23T17:07:24.105Z,2.22
2022-10-23T17:08:27.937Z,2.05
2022-10-23T17:09:30.702Z,2.13
2022-10-23T17:10:34.086Z,2.27
2022-10-23T17:11:36.956Z,1.88
2022-10-23T17:12:39.768Z,2.21
2022-10-23T17:13:42.920Z,1.98
2022-10-23T17:14:46.205Z,2.07
2022-10-23T17:15:50.007Z,2.16
2022-10-23T17:16:53.385Z,1.92
2022-10-23T17:17:56.463Z,2.12
2022-10-23T17:19:00.157Z,2.22
2022-10-23T17:20:03.857Z,2.12
2022-10-23T17:21:07.752Z,2.20
2022-10-23T17:22:11.862Z,2.04
2022-10-23T17:23:15.352Z,2.23
2022-10-23T17:24:19.156Z,2.13
2022-10-23T17:25:23.143Z,2.41
2022-10-23T17:26:26.637Z,2.16
2022-10-23T17:27:30.129Z,2.12
2022-10-23T17:28:33.912Z,2.23
2022-10-23T17:29:37.412Z,2.18
2022-10-23T17:30:40.792Z,2.40
2022-10-23T17:31:44.180Z,2.56
2022-10-23T17:32:47.850Z,2.40
2022-10-23T17:33:50.843Z,2.35
2022-10-23T17:34:53.930Z,2.30
2022-10-23T17:35:57.418Z,2.38
2022-10-23T17:37:00.908Z,2.42
2022-10-23T17:38:04.508Z,2.28
2022-10-23T17:39:08.093Z,2.20
2022-10-23T17:40:11.585Z,2.14
2022-10-23T17:41:15.077Z,2.37
2022-10-23T17:42:18.664Z,2.07
2022-10-23T17:43:21.844Z,2.02
2022-10-23T17:44:25.330Z,2.18
2022-10-23T17:45:28.407Z,2.15
2022-10-23T17:46:32.000Z,2.46
2022-10-23T17:47:35.393Z,2.36
2022-10-23T17:48:41.570Z,2.52
2022-10-23T17:49:46.171Z,2.25
2022-10-23T17:50:49.544Z,2.36
2022-10-23T17:51:52.746Z,2.30
2022-10-23T17:52:56.007Z,2.48
2022-10-23T17:53:59.804Z,2.66
2022-10-23T17:55:03.081Z,2.81
2022-10-23T17:56:06.574Z,2.63
2022-10-23T17:57:10.276Z,2.68
2022-10-23T17:58:13.244Z,3.11
2022-10-23T17:59:16.945Z,2.82
2022-10-23T18:00:20.220Z,2.54
2022-10-23T18:01:23.950Z,2.85
2022-10-23T18:02:27.454Z,2.85
2022-10-23T18:03:30.902Z,2.65
2022-10-23T18:04:33.670Z,2.56
2022-10-23T18:05:36.747Z,2.65
2022-10-23T18:06:39.426Z,2.84
2022-10-23T18:07:43.022Z,3.09
2022-10-23T18:08:45.987Z,2.99
2022-10-23T18:09:49.679Z,2.76
2022-10-23T18:10:53.687Z,2.83
2022-10-23T18:11:57.889Z,2.96
2022-10-23T18:13:02.612Z,3.19
2022-10-23T18:14:05.995Z,2.95
2022-10-23T18:15:10.412Z,3.19
2022-10-23T18:16:13.891Z,3.38
2022-10-23T18:17:17.384Z,3.05
